Time,TemperatureF,DewpointF,PressureIn,WindDirection,WindDirectionDegrees,WindSpeedMPH,WindSpeedGustMPH,Humidity,HourlyPrecipIn,Conditions,Clouds,dailyrainin,SoftwareType,DateUTC
2013-01-02 00:01:00,39.0,38.0,30.08,ESE,110,2.0,2.0,96,0.00,,,0.91,Wunderground v.1.15,2013-01-02 06:01:00,
2013-01-02 00:06:00,38.9,37.9,30.08,ESE,110,2.0,3.0,96,0.00,,,0.00,Wunderground v.1.15,2013-01-02 06:06:00,
2013-01-02 00:12:00,38.9,37.9,30.07,East,96,2.0,3.0,96,0.00,,,0.00,Wunderground v.1.15,2013-01-02 06:12:00,
2013-01-02 00:17:00,38.8,37.8,30.07,ESE,112,2.0,3.0,96,0.00,,,0.00,Wunderground v.1.15,2013-01-02 06:17:00,
2013-01-02 00:23:00,38.8,37.8,30.06,ESE,112,2.0,2.0,96,0.00,,,0.00,Wunderground v.1.15,2013-01-02 06:23:00,
2013-01-02 00:29:00,38.7,37.4,30.06,ENE,72,2.0,4.0,95,0.00,,,0.00,Wunderground v.1.15,2013-01-02 06:29:00,
2013-01-02 00:35:00,38.7,37.4,30.06,ESE,112,3.0,3.0,95,0.00,,,0.00,Wunderground v.1.15,2013-01-02 06:35:00,
2013-01-02 00:41:00,38.7,37.4,30.06,ESE,105,2.0,3.0,95,0.00,,,0.00,Wunderground v.1.15,2013-01-02 06:41:00,
2013-01-02 00:46:00,38.6,37.3,30.06,ESE,112,2.0,3.0,95,0.00,,,0.00,Wunderground v.1.15,2013-01-02 06:46:00,
2013-01-02 00:51:00,38.6,37.6,30.07,ESE,122,1.0,1.0,96,0.00,,,0.00,Wunderground v.1.15,2013-01-02 06:51:00,
2013-01-02 00:57:00,38.5,37.5,30.07,ESE,117,0.0,1.0,96,0.00,,,0.00,Wunderground v.1.15,2013-01-02 06:57:00,
2013-01-02 01:03:00,38.4,37.4,30.08,ESE,112,1.0,2.0,96,0.00,,,0.00,Wunderground v.1.15,2013-01-02 07:03:00,
2013-01-02 01:08:00,38.4,37.4,30.08,East,88,1.0,3.0,96,0.00,,,0.00,Wunderground v.1.15,2013-01-02 07:08:00,
2013-01-02 01:14:00,38.3,37.3,30.07,ESE,118,2.0,2.0,96,0.00,,,0.00,Wunderground v.1.15,2013-01-02 07:14:00,
2013-01-02 01:19:00,38.3,37.3,30.07,ESE,115,1.0,2.0,96,0.00,,,0.00,Wunderground v.1.15,2013-01-02 07:19:00,
2013-01-02 01:25:00,38.3,37.3,30.08,ESE,115,1.0,2.0,96,0.00,,,0.00,Wunderground v.1.15,2013-01-02 07:25:00,
2013-01-02 01:31:00,38.3,37.3,30.08,ESE,112,1.0,2.0,96,0.00,,,0.00,Wunderground v.1.15,2013-01-02 07:31:00,
2013-01-02 01:36:00,38.2,37.2,30.07,ESE,106,2.0,2.0,96,0.00,,,0.00,Wunderground v.1.15,2013-01-02 07:36:00,
2013-01-02 01:42:00,38.3,37.3,30.07,ESE,106,2.0,3.0,96,0.00,,,0.00,Wunderground v.1.15,2013-01-02 07:42:00,
2013-01-02 01:47:00,38.2,36.9,30.08,ESE,107,2.0,3.0,95,0.00,,,0.00,Wunderground v.1.15,2013-01-02 07:47:00,
2013-01-02 01:53:00,38.2,36.9,30.08,ESE,112,2.0,2.0,95,0.00,,,0.00,Wunderground v.1.15,2013-01-02 07:53:00,
2013-01-02 01:59:00,38.2,36.9,30.07,ESE,112,2.0,2.0,95,0.00,,,0.00,Wunderground v.1.15,2013-01-02 07:59:00,
2013-01-02 02:04:00,38.1,36.8,30.08,ESE,110,2.0,3.0,95,0.00,,,0.00,Wunderground v.1.15,2013-01-02 08:04:00,
2013-01-02 02:10:00,38.0,36.4,30.08,East,100,2.0,3.0,94,0.00,,,0.00,Wunderground v.1.15,2013-01-02 08:10:00,
2013-01-02 02:16:00,38.0,36.4,30.08,ESE,106,2.0,4.0,94,0.00,,,0.00,Wunderground v.1.15,2013-01-02 08:16:00,
2013-01-02 02:21:00,38.0,36.4,30.08,ESE,112,2.0,2.0,94,0.00,,,0.00,Wunderground v.1.15,2013-01-02 08:21:00,
2013-01-02 02:26:00,37.9,36.3,30.08,ENE,74,3.0,4.0,94,0.00,,,0.00,Wunderground v.1.15,2013-01-02 08:26:00,
2013-01-02 02:32:00,37.8,36.2,30.08,East,79,4.0,10.0,94,0.00,,,0.00,Wunderground v.1.15,2013-01-02 08:32:00,
2013-01-02 02:37:00,37.9,36.1,30.08,East,88,5.0,10.0,93,0.00,,,0.00,Wunderground v.1.15,2013-01-02 08:37:00,
2013-01-02 02:43:00,37.8,36.0,30.09,ESE,103,4.0,6.0,93,0.00,,,0.00,Wunderground v.1.15,2013-01-02 08:43:00,
2013-01-02 02:48:00,37.7,35.9,30.09,ESE,106,4.0,6.0,93,0.00,,,0.00,Wunderground v.1.15,2013-01-02 08:48:00,
2013-01-02 02:54:00,37.7,35.9,30.09,ENE,78,3.0,4.0,93,0.00,,,0.00,Wunderground v.1.15,2013-01-02 08:54:00,
2013-01-02 02:59:00,37.7,35.9,30.09,East,79,3.0,6.0,93,0.00,,,0.00,Wunderground v.1.15,2013-01-02 08:59:00,
2013-01-02 03:05:00,37.7,35.9,30.08,East,93,3.0,3.0,93,0.00,,,0.00,Wunderground v.1.15,2013-01-02 09:05:00,
2013-01-02 03:10:00,37.7,35.9,30.09,ENE,77,3.0,5.0,93,0.00,,,0.00,Wunderground v.1.15,2013-01-02 09:10:00,
2013-01-02 03:15:00,37.7,35.9,30.08,ENE,68,3.0,5.0,93,0.00,,,0.00,Wunderground v.1.15,2013-01-02 09:15:00,
2013-01-02 03:21:00,37.7,35.9,30.09,SE,126,2.0,3.0,93,0.00,,,0.00,Wunderground v.1.15,2013-01-02 09:21:00,
2013-01-02 03:26:00,37.5,35.7,30.08,East,79,3.0,7.0,93,0.00,,,0.00,Wunderground v.1.15,2013-01-02 09:26:00,
2013-01-02 03:32:00,37.5,35.4,30.09,ESE,112,5.0,5.0,92,0.00,,,0.00,Wunderground v.1.15,2013-01-02 09:32:00,
2013-01-02 03:37:00,37.4,35.3,30.08,ESE,112,3.0,5.0,92,0.00,,,0.00,Wunderground v.1.15,2013-01-02 09:37:00,
2013-01-02 03:43:00,37.3,35.5,30.09,ESE,107,3.0,6.0,93,0.00,,,0.00,Wunderground v.1.15,2013-01-02 09:43:00,
2013-01-02 03:48:00,37.3,35.2,30.09,ESE,106,4.0,6.0,92,0.00,,,0.00,Wunderground v.1.15,2013-01-02 09:48:00,
2013-01-02 03:54:00,37.2,35.4,30.10,East,85,3.0,5.0,93,0.00,,,0.00,Wunderground v.1.15,2013-01-02 09:54:00,
2013-01-02 03:59:00,37.1,35.0,30.10,East,99,4.0,6.0,92,0.00,,,0.00,Wunderground v.1.15,2013-01-02 09:59:00,
2013-01-02 04:04:00,37.1,35.3,30.10,East,86,4.0,4.0,93,0.00,,,0.00,Wunderground v.1.15,2013-01-02 10:04:00,
2013-01-02 04:10:00,37.1,35.3,30.10,East,86,4.0,4.0,93,0.00,,,0.00,Wunderground v.1.15,2013-01-02 10:10:00,
2013-01-02 04:15:00,37.0,35.2,30.10,NE,43,3.0,5.0,93,0.00,,,0.00,Wunderground v.1.15,2013-01-02 10:15:00,
2013-01-02 04:21:00,36.9,35.1,30.10,ENE,58,3.0,8.0,93,0.00,,,0.00,Wunderground v.1.15,2013-01-02 10:21:00,
2013-01-02 04:26:00,36.9,35.1,30.10,ESE,119,5.0,8.0,93,0.00,,,0.00,Wunderground v.1.15,2013-01-02 10:26:00,
2013-01-02 04:32:00,36.8,34.7,30.10,ENE,65,5.0,5.0,92,0.00,,,0.00,Wunderground v.1.15,2013-01-02 10:32:00,
2013-01-02 04:37:00,36.8,34.7,30.11,East,86,5.0,8.0,92,0.00,,,0.00,Wunderground v.1.15,2013-01-02 10:37:00,
2013-01-02 04:43:00,36.8,34.7,30.11,ESE,110,5.0,5.0,92,0.00,,,0.00,Wunderground v.1.15,2013-01-02 10:43:00,
2013-01-02 04:48:00,36.8,34.7,30.11,East,80,5.0,5.0,92,0.00,,,0.00,Wunderground v.1.15,2013-01-02 10:48:00,
2013-01-02 04:53:00,36.8,34.7,30.11,East,98,4.0,4.0,92,0.00,,,0.00,Wunderground v.1.15,2013-01-02 10:53:00,
2013-01-02 04:59:00,36.7,34.3,30.12,ESE,106,3.0,4.0,91,0.00,,,0.00,Wunderground v.1.15,2013-01-02 10:59:00,
2013-01-02 05:04:00,36.8,34.4,30.12,East,85,3.0,5.0,91,0.00,,,0.00,Wunderground v.1.15,2013-01-02 11:04:00,
2013-01-02 05:10:00,36.8,34.4,30.12,ENE,78,3.0,4.0,91,0.00,,,0.00,Wunderground v.1.15,2013-01-02 11:10:00,
2013-01-02 05:15:00,36.7,34.3,30.12,NE,48,4.0,5.0,91,0.00,,,0.00,Wunderground v.1.15,2013-01-02 11:15:00,
2013-01-02 05:21:00,36.8,34.4,30.13,East,88,4.0,5.0,91,0.00,,,0.00,Wunderground v.1.15,2013-01-02 11:21:00,
2013-01-02 05:26:00,36.8,34.1,30.13,ESE,102,3.0,6.0,90,0.00,,,0.00,Wunderground v.1.15,2013-01-02 11:26:00,
2013-01-02 05:32:00,36.8,34.4,30.13,ESE,112,3.0,3.0,91,0.00,,,0.00,Wunderground v.1.15,2013-01-02 11:32:00,
2013-01-02 05:37:00,36.7,34.0,30.13,NNE,29,3.0,11.0,90,0.00,,,0.00,Wunderground v.1.15,2013-01-02 11:37:00,
2013-01-02 05:43:00,36.7,34.0,30.12,ESE,106,5.0,5.0,90,0.00,,,0.00,Wunderground v.1.15,2013-01-02 11:43:00,
2013-01-02 05:48:00,36.6,33.9,30.12,East,89,4.0,9.0,90,0.00,,,0.00,Wunderground v.1.15,2013-01-02 11:48:00,
2013-01-02 05:54:00,36.6,34.2,30.13,ESE,112,3.0,4.0,91,0.00,,,0.00,Wunderground v.1.15,2013-01-02 11:54:00,
2013-01-02 05:59:00,36.5,34.1,30.14,ESE,114,2.0,4.0,91,0.00,,,0.00,Wunderground v.1.15,2013-01-02 11:59:00,
2013-01-02 06:04:00,36.6,34.2,30.13,East,88,2.0,3.0,91,0.00,,,0.00,Wunderground v.1.15,2013-01-02 12:04:00,
2013-01-02 06:10:00,36.5,34.1,30.13,East,80,2.0,5.0,91,0.00,,,0.00,Wunderground v.1.15,2013-01-02 12:10:00,
2013-01-02 06:15:00,36.5,34.1,30.13,East,84,3.0,6.0,91,0.00,,,0.00,Wunderground v.1.15,2013-01-02 12:15:00,
2013-01-02 06:21:00,36.4,34.0,30.14,ESE,114,3.0,4.0,91,0.00,,,0.00,Wunderground v.1.15,2013-01-02 12:21:00,
2013-01-02 06:27:00,36.3,33.9,30.14,ENE,74,3.0,6.0,91,0.00,,,0.00,Wunderground v.1.15,2013-01-02 12:27:00,
2013-01-02 06:33:00,36.3,33.9,30.14,ENE,71,4.0,6.0,91,0.00,,,0.00,Wunderground v.1.15,2013-01-02 12:33:00,
2013-01-02 06:38:00,36.3,33.9,30.14,North,359,4.0,6.0,91,0.00,,,0.00,Wunderground v.1.15,2013-01-02 12:38:00,
2013-01-02 06:44:00,36.3,33.9,30.14,East,79,4.0,5.0,91,0.00,,,0.00,Wunderground v.1.15,2013-01-02 12:44:00,
2013-01-02 06:49:00,36.2,33.8,30.14,East,100,4.0,7.0,91,0.00,,,0.00,Wunderground v.1.15,2013-01-02 12:49:00,
2013-01-02 06:55:00,36.2,33.8,30.15,ESE,110,3.0,5.0,91,0.00,,,0.00,Wunderground v.1.15,2013-01-02 12:55:00,
2013-01-02 07:00:00,36.2,33.8,30.14,East,86,2.0,4.0,91,0.00,,,0.00,Wunderground v.1.15,2013-01-02 13:00:00,
2013-01-02 07:06:00,36.1,33.7,30.14,East,91,2.0,4.0,91,0.00,,,0.00,Wunderground v.1.15,2013-01-02 13:06:00,
2013-01-02 07:11:00,36.1,33.7,30.15,ESE,107,3.0,3.0,91,0.00,,,0.00,Wunderground v.1.15,2013-01-02 13:11:00,
2013-01-02 07:17:00,36.1,33.7,30.16,ENE,69,3.0,5.0,91,0.00,,,0.00,Wunderground v.1.15,2013-01-02 13:17:00,
2013-01-02 07:22:00,36.1,33.7,30.15,ENE,76,3.0,5.0,91,0.00,,,0.00,Wunderground v.1.15,2013-01-02 13:22:00,
2013-01-02 07:28:00,36.1,33.7,30.14,ENE,67,3.0,6.0,91,0.00,,,0.00,Wunderground v.1.15,2013-01-02 13:28:00,
2013-01-02 07:33:00,36.0,33.4,30.14,ESE,118,3.0,4.0,90,0.00,,,0.00,Wunderground v.1.15,2013-01-02 13:33:00,
2013-01-02 07:38:00,36.1,33.5,30.14,East,89,3.0,4.0,90,0.00,,,0.00,Wunderground v.1.15,2013-01-02 13:38:00,
2013-01-02 07:44:00,36.1,33.5,30.14,NE,53,4.0,7.0,90,0.00,,,0.00,Wunderground v.1.15,2013-01-02 13:44:00,
2013-01-02 07:49:00,36.1,33.5,30.15,ESE,110,4.0,7.0,90,0.00,,,0.00,Wunderground v.1.15,2013-01-02 13:49:00,
2013-01-02 07:55:00,36.0,33.4,30.16,ESE,110,2.0,4.0,90,0.00,,,0.00,Wunderground v.1.15,2013-01-02 13:55:00,
2013-01-02 08:00:00,36.0,33.4,30.15,ESE,112,3.0,3.0,90,0.00,,,0.00,Wunderground v.1.15,2013-01-02 14:00:00,
2013-01-02 08:06:00,35.9,33.3,30.15,ENE,64,4.0,6.0,90,0.00,,,0.00,Wunderground v.1.15,2013-01-02 14:06:00,
2013-01-02 08:11:00,35.9,33.3,30.14,East,79,5.0,5.0,90,0.00,,,0.00,Wunderground v.1.15,2013-01-02 14:11:00,
2013-01-02 08:17:00,35.8,32.9,30.15,East,79,5.0,8.0,89,0.00,,,0.00,Wunderground v.1.15,2013-01-02 14:17:00,
2013-01-02 08:22:00,35.8,33.2,30.16,East,99,5.0,5.0,90,0.00,,,0.00,Wunderground v.1.15,2013-01-02 14:22:00,
2013-01-02 08:27:00,35.7,32.8,30.16,ESE,105,5.0,8.0,89,0.00,,,0.00,Wunderground v.1.15,2013-01-02 14:27:00,
2013-01-02 08:33:00,35.7,33.1,30.17,NNE,27,4.0,9.0,90,0.00,,,0.00,Wunderground v.1.15,2013-01-02 14:33:00,
2013-01-02 08:38:00,35.7,32.8,30.17,East,86,4.0,9.0,89,0.00,,,0.00,Wunderground v.1.15,2013-01-02 14:38:00,
2013-01-02 08:44:00,35.7,32.8,30.18,ESE,105,4.0,4.0,89,0.00,,,0.00,Wunderground v.1.15,2013-01-02 14:44:00,
2013-01-02 08:49:00,35.7,32.8,30.18,East,99,3.0,4.0,89,0.00,,,0.00,Wunderground v.1.15,2013-01-02 14:49:00,
2013-01-02 08:55:00,35.8,33.2,30.18,ESE,107,2.0,3.0,90,0.00,,,0.00,Wunderground v.1.15,2013-01-02 14:55:00,
2013-01-02 09:00:00,36.0,33.4,30.17,ESE,107,2.0,2.0,90,0.00,,,0.00,Wunderground v.1.15,2013-01-02 15:00:00,
2013-01-02 09:06:00,36.1,33.5,30.18,East,93,2.0,3.0,90,0.00,,,0.00,Wunderground v.1.15,2013-01-02 15:06:00,
2013-01-02 09:11:00,36.3,33.6,30.18,ENE,65,2.0,5.0,90,0.00,,,0.00,Wunderground v.1.15,2013-01-02 15:11:00,
2013-01-02 09:17:00,36.4,33.7,30.18,ESE,112,2.0,5.0,90,0.00,,,0.00,Wunderground v.1.15,2013-01-02 15:17:00,
2013-01-02 09:22:00,36.5,33.6,30.18,ESE,102,3.0,6.0,89,0.00,,,0.00,Wunderground v.1.15,2013-01-02 15:22:00,
2013-01-02 09:28:00,36.6,33.4,30.19,NE,46,4.0,6.0,88,0.00,,,0.00,Wunderground v.1.15,2013-01-02 15:28:00,
2013-01-02 09:33:00,36.6,33.4,30.19,East,100,4.0,4.0,88,0.00,,,0.00,Wunderground v.1.15,2013-01-02 15:33:00,
2013-01-02 09:38:00,36.7,33.8,30.19,East,92,3.0,4.0,89,0.00,,,0.00,Wunderground v.1.15,2013-01-02 15:38:00,
2013-01-02 09:44:00,36.9,33.7,30.19,East,84,2.0,4.0,88,0.00,,,0.00,Wunderground v.1.15,2013-01-02 15:44:00,
2013-01-02 09:49:00,36.9,33.7,30.20,ESE,107,3.0,4.0,88,0.00,,,0.00,Wunderground v.1.15,2013-01-02 15:49:00,
2013-01-02 09:55:00,36.8,33.3,30.20,East,99,3.0,4.0,87,0.00,,,0.00,Wunderground v.1.15,2013-01-02 15:55:00,
2013-01-02 10:00:00,36.8,33.6,30.20,East,80,2.0,4.0,88,0.00,,,0.00,Wunderground v.1.15,2013-01-02 16:00:00,
2013-01-02 10:06:00,36.6,33.1,30.19,ESE,114,2.0,5.0,87,0.00,,,0.00,Wunderground v.1.15,2013-01-02 16:06:00,
2013-01-02 10:11:00,36.7,33.5,30.19,ESE,114,2.0,3.0,88,0.00,,,0.00,Wunderground v.1.15,2013-01-02 16:11:00,
2013-01-02 10:17:00,36.6,33.1,30.20,ENE,68,3.0,4.0,87,0.00,,,0.00,Wunderground v.1.15,2013-01-02 16:17:00,
2013-01-02 10:23:00,36.5,33.0,30.18,ESE,107,3.0,5.0,87,0.00,,,0.00,Wunderground v.1.15,2013-01-02 16:23:00,
2013-01-02 10:29:00,36.7,33.2,30.18,ESE,112,2.0,5.0,87,0.00,,,0.00,Wunderground v.1.15,2013-01-02 16:29:00,
2013-01-02 10:35:00,36.7,33.2,30.18,ENE,74,2.0,4.0,87,0.00,,,0.00,Wunderground v.1.15,2013-01-02 16:35:00,
2013-01-02 10:40:00,36.6,33.1,30.18,East,95,3.0,3.0,87,0.00,,,0.00,Wunderground v.1.15,2013-01-02 16:40:00,
2013-01-02 10:45:00,36.7,33.2,30.18,ESE,114,2.0,3.0,87,0.00,,,0.00,Wunderground v.1.15,2013-01-02 16:45:00,
2013-01-02 10:51:00,36.8,33.3,30.19,ESE,112,2.0,2.0,87,0.00,,,0.00,Wunderground v.1.15,2013-01-02 16:51:00,
2013-01-02 10:57:00,36.8,33.3,30.18,East,101,2.0,3.0,87,0.00,,,0.00,Wunderground v.1.15,2013-01-02 16:57:00,
2013-01-02 11:02:00,36.8,33.6,30.18,ESE,112,2.0,2.0,88,0.00,,,0.00,Wunderground v.1.15,2013-01-02 17:02:00,
2013-01-02 11:08:00,37.0,33.5,30.17,ESE,112,2.0,2.0,87,0.00,,,0.00,Wunderground v.1.15,2013-01-02 17:08:00,
2013-01-02 11:13:00,37.1,33.9,30.17,ESE,110,2.0,2.0,88,0.00,,,0.00,Wunderground v.1.15,2013-01-02 17:13:00,
2013-01-02 11:19:00,37.1,33.6,30.17,East,98,2.0,4.0,87,0.00,,,0.00,Wunderground v.1.15,2013-01-02 17:19:00,
2013-01-02 11:25:00,37.1,33.6,30.17,ESE,114,3.0,5.0,87,0.00,,,0.00,Wunderground v.1.15,2013-01-02 17:25:00,
2013-01-02 11:30:00,37.4,33.9,30.17,ESE,107,2.0,2.0,87,0.00,,,0.00,Wunderground v.1.15,2013-01-02 17:30:00,
2013-01-02 11:36:00,37.3,33.5,30.16,East,99,2.0,4.0,86,0.00,,,0.00,Wunderground v.1.15,2013-01-02 17:36:00,
2013-01-02 11:41:00,37.3,33.2,30.15,East,89,3.0,4.0,85,0.00,,,0.00,Wunderground v.1.15,2013-01-02 17:41:00,
2013-01-02 11:47:00,37.3,33.5,30.16,ESE,112,3.0,5.0,86,0.00,,,0.00,Wunderground v.1.15,2013-01-02 17:47:00,
2013-01-02 11:52:00,37.3,33.2,30.16,ESE,105,3.0,3.0,85,0.00,,,0.00,Wunderground v.1.15,2013-01-02 17:52:00,
2013-01-02 11:58:00,37.3,33.2,30.15,ESE,110,3.0,4.0,85,0.00,,,0.00,Wunderground v.1.15,2013-01-02 17:58:00,
2013-01-02 12:03:00,37.5,33.4,30.15,ESE,114,2.0,3.0,85,0.00,,,0.00,Wunderground v.1.15,2013-01-02 18:03:00,
2013-01-02 12:08:00,37.4,33.0,30.16,East,100,2.0,3.0,84,0.00,,,0.00,Wunderground v.1.15,2013-01-02 18:08:00,
2013-01-02 12:14:00,37.5,33.4,30.15,ESE,114,3.0,3.0,85,0.00,,,0.00,Wunderground v.1.15,2013-01-02 18:14:00,
2013-01-02 12:19:00,37.7,33.6,30.15,NE,37,2.0,6.0,85,0.00,,,0.00,Wunderground v.1.15,2013-01-02 18:19:00,
2013-01-02 12:25:00,37.6,33.5,30.15,East,82,2.0,4.0,85,0.00,,,0.00,Wunderground v.1.15,2013-01-02 18:25:00,
2013-01-02 12:30:00,37.6,33.5,30.15,ESE,103,3.0,3.0,85,0.00,,,0.00,Wunderground v.1.15,2013-01-02 18:30:00,
2013-01-02 12:36:00,37.5,33.4,30.14,East,97,3.0,4.0,85,0.00,,,0.00,Wunderground v.1.15,2013-01-02 18:36:00,
2013-01-02 12:41:00,37.5,33.4,30.14,ESE,117,3.0,3.0,85,0.00,,,0.00,Wunderground v.1.15,2013-01-02 18:41:00,
2013-01-02 12:47:00,37.6,33.5,30.13,East,100,3.0,4.0,85,0.00,,,0.00,Wunderground v.1.15,2013-01-02 18:47:00,
2013-01-02 12:52:00,37.6,33.8,30.14,ESE,114,2.0,3.0,86,0.00,,,0.00,Wunderground v.1.15,2013-01-02 18:52:00,
2013-01-02 12:58:00,37.5,33.4,30.14,ESE,115,2.0,4.0,85,0.00,,,0.00,Wunderground v.1.15,2013-01-02 18:58:00,
2013-01-02 13:04:00,37.5,33.4,30.14,ESE,105,2.0,3.0,85,0.00,,,0.00,Wunderground v.1.15,2013-01-02 19:04:00,
2013-01-02 13:09:00,37.5,33.4,30.15,East,100,2.0,4.0,85,0.00,,,0.00,Wunderground v.1.15,2013-01-02 19:09:00,
2013-01-02 13:15:00,37.4,33.3,30.14,ESE,114,2.0,7.0,85,0.00,,,0.00,Wunderground v.1.15,2013-01-02 19:15:00,
2013-01-02 13:20:00,37.5,33.7,30.14,ESE,106,2.0,3.0,86,0.00,,,0.00,Wunderground v.1.15,2013-01-02 19:20:00,
2013-01-02 13:26:00,37.4,33.3,30.14,ESE,106,2.0,3.0,85,0.00,,,0.00,Wunderground v.1.15,2013-01-02 19:26:00,
2013-01-02 13:31:00,37.4,33.6,30.14,East,82,3.0,4.0,86,0.00,,,0.00,Wunderground v.1.15,2013-01-02 19:31:00,
2013-01-02 13:36:00,37.4,33.9,30.14,ESE,114,2.0,4.0,87,0.00,,,0.00,Wunderground v.1.15,2013-01-02 19:36:00,
2013-01-02 13:42:00,37.4,33.6,30.14,ESE,107,2.0,3.0,86,0.00,,,0.00,Wunderground v.1.15,2013-01-02 19:42:00,
2013-01-02 13:48:00,37.3,33.8,30.14,East,79,3.0,4.0,87,0.00,,,0.00,Wunderground v.1.15,2013-01-02 19:48:00,
2013-01-02 13:53:00,37.2,33.7,30.14,ENE,71,3.0,4.0,87,0.00,,,0.00,Wunderground v.1.15,2013-01-02 19:53:00,
2013-01-02 13:59:00,37.2,33.7,30.14,East,92,3.0,5.0,87,0.00,,,0.00,Wunderground v.1.15,2013-01-02 19:59:00,
2013-01-02 14:04:00,37.2,33.4,30.13,East,99,4.0,6.0,86,0.00,,,0.00,Wunderground v.1.15,2013-01-02 20:04:00,
2013-01-02 14:10:00,37.2,33.4,30.14,East,100,3.0,3.0,86,0.00,,,0.00,Wunderground v.1.15,2013-01-02 20:10:00,
2013-01-02 14:15:00,37.2,33.4,30.15,East,99,3.0,6.0,86,0.00,,,0.00,Wunderground v.1.15,2013-01-02 20:15:00,
2013-01-02 14:21:00,37.2,33.4,30.14,ESE,119,3.0,3.0,86,0.00,,,0.00,Wunderground v.1.15,2013-01-02 20:21:00,
2013-01-02 14:27:00,37.3,33.5,30.14,East,100,3.0,3.0,86,0.00,,,0.00,Wunderground v.1.15,2013-01-02 20:27:00,
2013-01-02 14:32:00,37.3,33.5,30.14,ESE,103,2.0,3.0,86,0.00,,,0.00,Wunderground v.1.15,2013-01-02 20:32:00,
2013-01-02 14:38:00,37.2,33.4,30.15,ENE,71,3.0,6.0,86,0.00,,,0.00,Wunderground v.1.15,2013-01-02 20:38:00,
2013-01-02 14:44:00,37.2,33.1,30.13,ENE,72,3.0,4.0,85,0.00,,,0.00,Wunderground v.1.15,2013-01-02 20:44:00,
2013-01-02 14:49:00,37.2,33.4,30.14,East,98,3.0,4.0,86,0.00,,,0.00,Wunderground v.1.15,2013-01-02 20:49:00,
2013-01-02 14:55:00,37.3,33.5,30.15,ESE,112,2.0,3.0,86,0.00,,,0.00,Wunderground v.1.15,2013-01-02 20:55:00,
2013-01-02 15:00:00,37.4,33.6,30.14,ESE,114,1.0,1.0,86,0.00,,,0.00,Wunderground v.1.15,2013-01-02 21:00:00,
2013-01-02 15:06:00,37.4,33.6,30.15,ESE,114,0.0,1.0,86,0.00,,,0.00,Wunderground v.1.15,2013-01-02 21:06:00,
2013-01-02 15:11:00,37.4,33.6,30.15,ESE,114,0.0,1.0,86,0.00,,,0.00,Wunderground v.1.15,2013-01-02 21:11:00,
2013-01-02 15:17:00,37.4,33.3,30.16,ESE,114,1.0,1.0,85,0.00,,,0.00,Wunderground v.1.15,2013-01-02 21:17:00,
2013-01-02 15:22:00,37.5,33.7,30.16,ESE,114,0.0,1.0,86,0.00,,,0.00,Wunderground v.1.15,2013-01-02 21:22:00,
2013-01-02 15:28:00,37.6,33.8,30.16,ESE,120,0.0,1.0,86,0.00,,,0.00,Wunderground v.1.15,2013-01-02 21:28:00,
2013-01-02 15:33:00,37.6,33.5,30.16,ESE,120,0.0,1.0,85,0.00,,,0.00,Wunderground v.1.15,2013-01-02 21:33:00,
2013-01-02 15:39:00,37.5,33.7,30.16,ESE,122,0.0,1.0,86,0.00,,,0.00,Wunderground v.1.15,2013-01-02 21:39:00,
2013-01-02 15:44:00,37.5,33.7,30.16,ESE,122,0.0,1.0,86,0.00,,,0.00,Wunderground v.1.15,2013-01-02 21:44:00,
2013-01-02 15:49:00,37.4,33.3,30.18,ESE,122,0.0,1.0,85,0.00,,,0.00,Wunderground v.1.15,2013-01-02 21:49:00,
2013-01-02 15:55:00,37.3,33.2,30.17,ESE,121,0.0,1.0,85,0.00,,,0.00,Wunderground v.1.15,2013-01-02 21:55:00,
2013-01-02 16:01:00,37.3,33.5,30.17,ESE,121,0.0,1.0,86,0.00,,,0.00,Wunderground v.1.15,2013-01-02 22:01:00,
2013-01-02 16:06:00,37.2,33.4,30.16,ESE,122,0.0,1.0,86,0.00,,,0.00,Wunderground v.1.15,2013-01-02 22:06:00,
2013-01-02 16:11:00,37.2,33.4,30.16,ESE,122,0.0,1.0,86,0.00,,,0.00,Wunderground v.1.15,2013-01-02 22:11:00,
2013-01-02 16:17:00,37.1,33.3,30.16,ESE,118,0.0,1.0,86,0.00,,,0.00,Wunderground v.1.15,2013-01-02 22:17:00,
2013-01-02 16:22:00,36.9,33.1,30.16,ESE,112,1.0,1.0,86,0.00,,,0.00,Wunderground v.1.15,2013-01-02 22:22:00,
2013-01-02 16:28:00,36.9,33.4,30.16,ESE,116,1.0,2.0,87,0.00,,,0.00,Wunderground v.1.15,2013-01-02 22:28:00,
2013-01-02 16:33:00,36.9,33.4,30.16,ESE,117,1.0,1.0,87,0.00,,,0.00,Wunderground v.1.15,2013-01-02 22:33:00,
2013-01-02 16:39:00,36.8,33.3,30.15,ESE,117,0.0,1.0,87,0.00,,,0.00,Wunderground v.1.15,2013-01-02 22:39:00,
2013-01-02 16:44:00,36.8,33.3,30.16,ESE,117,0.0,1.0,87,0.00,,,0.00,Wunderground v.1.15,2013-01-02 22:44:00,
2013-01-02 16:50:00,36.7,33.2,30.16,ESE,117,0.0,1.0,87,0.00,,,0.00,Wunderground v.1.15,2013-01-02 22:50:00,
2013-01-02 16:55:00,36.7,33.2,30.16,ESE,116,1.0,2.0,87,0.00,,,0.00,Wunderground v.1.15,2013-01-02 22:55:00,
2013-01-02 17:01:00,36.7,33.5,30.16,ESE,110,1.0,1.0,88,0.00,,,0.00,Wunderground v.1.15,2013-01-02 23:01:00,
2013-01-02 17:06:00,36.7,33.5,30.17,ESE,114,1.0,1.0,88,0.00,,,0.00,Wunderground v.1.15,2013-01-02 23:06:00,
2013-01-02 17:12:00,36.7,33.5,30.16,ESE,120,0.0,1.0,88,0.00,,,0.00,Wunderground v.1.15,2013-01-02 23:12:00,
2013-01-02 17:17:00,36.6,33.4,30.16,ESE,120,0.0,1.0,88,0.00,,,0.00,Wunderground v.1.15,2013-01-02 23:17:00,
2013-01-02 17:23:00,36.6,33.4,30.17,ESE,107,1.0,2.0,88,0.00,,,0.00,Wunderground v.1.15,2013-01-02 23:23:00,
2013-01-02 17:29:00,36.7,33.5,30.17,ESE,112,1.0,2.0,88,0.00,,,0.00,Wunderground v.1.15,2013-01-02 23:29:00,
2013-01-02 17:34:00,36.7,33.5,30.17,ESE,106,2.0,3.0,88,0.00,,,0.00,Wunderground v.1.15,2013-01-02 23:34:00,
2013-01-02 17:40:00,36.7,33.2,30.16,ESE,110,2.0,2.0,87,0.00,,,0.00,Wunderground v.1.15,2013-01-02 23:40:00,
2013-01-02 17:45:00,36.7,33.2,30.17,ESE,116,2.0,3.0,87,0.00,,,0.00,Wunderground v.1.15,2013-01-02 23:45:00,
2013-01-02 17:51:00,36.6,33.1,30.16,ESE,119,2.0,2.0,87,0.00,,,0.00,Wunderground v.1.15,2013-01-02 23:51:00,
2013-01-02 17:56:00,36.6,33.4,30.17,ESE,117,2.0,2.0,88,0.00,,,0.00,Wunderground v.1.15,2013-01-02 23:56:00,
2013-01-02 18:02:00,36.6,33.4,30.18,ESE,114,1.0,2.0,88,0.00,,,0.00,Wunderground v.1.15,2013-01-03 00:02:00,
2013-01-02 18:07:00,36.6,33.7,30.17,ESE,114,1.0,2.0,89,0.00,,,0.00,Wunderground v.1.15,2013-01-03 00:07:00,
2013-01-02 18:13:00,36.5,33.6,30.17,ESE,122,1.0,1.0,89,0.00,,,0.00,Wunderground v.1.15,2013-01-03 00:13:00,
2013-01-02 18:18:00,36.4,33.5,30.18,ESE,112,1.0,2.0,89,0.00,,,0.00,Wunderground v.1.15,2013-01-03 00:18:00,
2013-01-02 18:23:00,36.5,33.6,30.18,ESE,122,1.0,1.0,89,0.00,,,0.00,Wunderground v.1.15,2013-01-03 00:23:00,
2013-01-02 18:29:00,36.4,33.5,30.19,ESE,115,1.0,2.0,89,0.00,,,0.00,Wunderground v.1.15,2013-01-03 00:29:00,
2013-01-02 18:34:00,36.4,33.5,30.18,ESE,112,1.0,3.0,89,0.00,,,0.00,Wunderground v.1.15,2013-01-03 00:34:00,
2013-01-02 18:39:00,36.3,33.4,30.18,ESE,103,2.0,3.0,89,0.00,,,0.00,Wunderground v.1.15,2013-01-03 00:39:00,
2013-01-02 18:45:00,36.3,33.4,30.18,East,88,2.0,3.0,89,0.00,,,0.00,Wunderground v.1.15,2013-01-03 00:45:00,
2013-01-02 18:50:00,36.2,33.3,30.19,ESE,107,2.0,2.0,89,0.00,,,0.00,Wunderground v.1.15,2013-01-03 00:50:00,
2013-01-02 18:56:00,36.2,33.3,30.18,ESE,118,1.0,2.0,89,0.00,,,0.00,Wunderground v.1.15,2013-01-03 00:56:00,
2013-01-02 19:01:00,36.2,33.3,30.19,ESE,110,1.0,1.0,89,0.00,,,0.00,Wunderground v.1.15,2013-01-03 01:01:00,
2013-01-02 19:07:00,36.1,33.2,30.19,SE,126,1.0,2.0,89,0.00,,,0.00,Wunderground v.1.15,2013-01-03 01:07:00,
2013-01-02 19:12:00,36.1,33.2,30.18,ESE,117,2.0,2.0,89,0.00,,,0.00,Wunderground v.1.15,2013-01-03 01:12:00,
2013-01-02 19:18:00,36.1,33.5,30.19,ESE,116,1.0,2.0,90,0.00,,,0.00,Wunderground v.1.15,2013-01-03 01:18:00,
2013-01-02 19:23:00,36.1,33.5,30.19,ESE,121,1.0,1.0,90,0.00,,,0.00,Wunderground v.1.15,2013-01-03 01:23:00,
2013-01-02 19:28:00,36.0,33.4,30.20,ESE,114,0.0,2.0,90,0.00,,,0.00,Wunderground v.1.15,2013-01-03 01:28:00,
2013-01-02 19:34:00,36.0,33.4,30.19,ESE,118,1.0,1.0,90,0.00,,,0.00,Wunderground v.1.15,2013-01-03 01:34:00,
2013-01-02 19:39:00,36.0,33.1,30.19,ESE,118,1.0,1.0,89,0.00,,,0.00,Wunderground v.1.15,2013-01-03 01:39:00,
2013-01-02 19:45:00,36.0,33.4,30.20,ESE,118,0.0,1.0,90,0.00,,,0.00,Wunderground v.1.15,2013-01-03 01:45:00,
2013-01-02 19:50:00,36.0,33.4,30.21,ESE,119,0.0,1.0,90,0.00,,,0.00,Wunderground v.1.15,2013-01-03 01:50:00,
2013-01-02 19:56:00,36.0,33.4,30.21,ESE,118,0.0,1.0,90,0.00,,,0.00,Wunderground v.1.15,2013-01-03 01:56:00,
2013-01-02 20:01:00,36.0,33.4,30.20,SE,125,0.0,1.0,90,0.00,,,0.00,Wunderground v.1.15,2013-01-03 02:01:00,
2013-01-02 20:07:00,35.9,33.3,30.19,SE,125,0.0,1.0,90,0.00,,,0.00,Wunderground v.1.15,2013-01-03 02:07:00,
2013-01-02 20:12:00,35.9,33.3,30.20,SE,125,0.0,1.0,90,0.00,,,0.00,Wunderground v.1.15,2013-01-03 02:12:00,
2013-01-02 20:17:00,35.9,33.5,30.20,SE,126,0.0,1.0,91,0.00,,,0.00,Wunderground v.1.15,2013-01-03 02:17:00,
2013-01-02 20:23:00,35.8,33.4,30.20,SE,130,0.0,2.0,91,0.00,,,0.00,Wunderground v.1.15,2013-01-03 02:23:00,
2013-01-02 20:28:00,35.9,33.5,30.19,ESE,120,1.0,2.0,91,0.00,,,0.00,Wunderground v.1.15,2013-01-03 02:28:00,
2013-01-02 20:34:00,35.8,33.4,30.20,ESE,119,1.0,2.0,91,0.00,,,0.00,Wunderground v.1.15,2013-01-03 02:34:00,
2013-01-02 20:39:00,35.8,33.4,30.20,ESE,120,1.0,2.0,91,0.00,,,0.00,Wunderground v.1.15,2013-01-03 02:39:00,
2013-01-02 20:45:00,35.8,33.4,30.20,ESE,120,1.0,1.0,91,0.00,,,0.00,Wunderground v.1.15,2013-01-03 02:45:00,
2013-01-02 20:50:00,35.8,33.4,30.20,ESE,118,1.0,1.0,91,0.00,,,0.00,Wunderground v.1.15,2013-01-03 02:50:00,
2013-01-02 20:56:00,35.8,33.4,30.21,ESE,119,1.0,1.0,91,0.00,,,0.00,Wunderground v.1.15,2013-01-03 02:56:00,
2013-01-02 21:01:00,35.8,33.4,30.20,ESE,118,1.0,1.0,91,0.00,,,0.00,Wunderground v.1.15,2013-01-03 03:01:00,
2013-01-02 21:07:00,35.7,33.3,30.20,ESE,118,0.0,1.0,91,0.00,,,0.00,Wunderground v.1.15,2013-01-03 03:07:00,
2013-01-02 21:12:00,35.8,33.4,30.20,ESE,120,0.0,1.0,91,0.00,,,0.00,Wunderground v.1.15,2013-01-03 03:12:00,
2013-01-02 21:18:00,35.8,33.4,30.20,ESE,120,0.0,1.0,91,0.00,,,0.00,Wunderground v.1.15,2013-01-03 03:18:00,
2013-01-02 21:23:00,35.7,33.3,30.19,SE,127,0.0,1.0,91,0.00,,,0.00,Wunderground v.1.15,2013-01-03 03:23:00,
2013-01-02 21:29:00,35.7,33.3,30.20,ESE,112,0.0,1.0,91,0.00,,,0.00,Wunderground v.1.15,2013-01-03 03:29:00,
2013-01-02 21:34:00,35.7,33.3,30.20,ESE,113,1.0,1.0,91,0.00,,,0.00,Wunderground v.1.15,2013-01-03 03:34:00,
2013-01-02 21:40:00,35.7,33.3,30.22,ESE,112,1.0,1.0,91,0.00,,,0.00,Wunderground v.1.15,2013-01-03 03:40:00,
2013-01-02 21:46:00,35.7,33.3,30.22,ESE,112,0.0,1.0,91,0.00,,,0.00,Wunderground v.1.15,2013-01-03 03:46:00,
2013-01-02 21:52:00,35.8,33.4,30.21,ESE,117,0.0,1.0,91,0.00,,,0.00,Wunderground v.1.15,2013-01-03 03:52:00,
2013-01-02 21:58:00,35.8,33.4,30.20,SE,127,0.0,2.0,91,0.00,,,0.00,Wunderground v.1.15,2013-01-03 03:58:00,
2013-01-02 22:03:00,35.7,33.3,30.20,ESE,123,1.0,2.0,91,0.00,,,0.00,Wunderground v.1.15,2013-01-03 04:03:00,
2013-01-02 22:09:00,35.7,33.1,30.20,ESE,105,1.0,3.0,90,0.00,,,0.00,Wunderground v.1.15,2013-01-03 04:09:00,
2013-01-02 22:14:00,35.7,33.1,30.21,ESE,112,1.0,1.0,90,0.00,,,0.00,Wunderground v.1.15,2013-01-03 04:14:00,
2013-01-02 22:20:00,35.7,32.8,30.22,ESE,112,1.0,2.0,89,0.00,,,0.00,Wunderground v.1.15,2013-01-03 04:20:00,
2013-01-02 22:25:00,35.7,33.1,30.22,ESE,114,1.0,2.0,90,0.00,,,0.00,Wunderground v.1.15,2013-01-03 04:25:00,
2013-01-02 22:31:00,35.7,32.8,30.22,ENE,71,1.0,4.0,89,0.00,,,0.00,Wunderground v.1.15,2013-01-03 04:31:00,
2013-01-02 22:36:00,35.7,32.8,30.22,East,100,2.0,4.0,89,0.00,,,0.00,Wunderground v.1.15,2013-01-03 04:36:00,
2013-01-02 22:42:00,35.7,32.5,30.22,ENE,57,2.0,4.0,88,0.00,,,0.00,Wunderground v.1.15,2013-01-03 04:42:00,
2013-01-02 22:47:00,35.7,32.5,30.22,ESE,107,3.0,4.0,88,0.00,,,0.00,Wunderground v.1.15,2013-01-03 04:47:00,
2013-01-02 22:53:00,35.7,32.2,30.22,East,100,3.0,3.0,87,0.00,,,0.00,Wunderground v.1.15,2013-01-03 04:53:00,
2013-01-02 22:58:00,35.8,32.3,30.22,ESE,114,2.0,3.0,87,0.00,,,0.00,Wunderground v.1.15,2013-01-03 04:58:00,
2013-01-02 23:02:00,35.8,32.6,30.22,ESE,114,1.0,1.0,88,0.00,,,0.00,Wunderground v.1.15,2013-01-03 05:02:00,
2013-01-02 23:04:00,35.7,32.2,30.22,ESE,108,1.0,2.0,87,0.00,,,0.00,Wunderground v.1.15,2013-01-03 05:04:00,
2013-01-02 23:09:00,35.7,32.2,30.21,ESE,114,1.0,2.0,87,0.00,,,0.00,Wunderground v.1.15,2013-01-03 05:09:00,
2013-01-02 23:15:00,35.7,32.5,30.20,ESE,114,0.0,1.0,88,0.00,,,0.00,Wunderground v.1.15,2013-01-03 05:15:00,
2013-01-02 23:18:00,35.7,32.5,30.21,ESE,114,0.0,1.0,88,0.00,,,0.00,Wunderground v.1.15,2013-01-03 05:18:00,
2013-01-02 23:23:00,35.6,32.4,30.21,ESE,114,0.0,1.0,88,0.00,,,0.00,Wunderground v.1.15,2013-01-03 05:23:00,
2013-01-02 23:29:00,35.6,32.4,30.21,ESE,103,1.0,2.0,88,0.00,,,0.00,Wunderground v.1.15,2013-01-03 05:29:00,
2013-01-02 23:34:00,35.5,32.0,30.21,ESE,112,1.0,2.0,87,0.00,,,0.00,Wunderground v.1.15,2013-01-03 05:34:00,
2013-01-02 23:40:00,35.5,32.0,30.20,ESE,103,1.0,2.0,87,0.00,,,0.00,Wunderground v.1.15,2013-01-03 05:40:00,
2013-01-02 23:45:00,35.5,32.0,30.20,ESE,114,1.0,2.0,87,0.00,,,0.00,Wunderground v.1.15,2013-01-03 05:45:00,
2013-01-02 23:51:00,35.4,31.9,30.19,ESE,114,0.0,1.0,87,0.00,,,0.00,Wunderground v.1.15,2013-01-03 05:51:00,
2013-01-02 23:56:00,35.4,32.2,30.20,ESE,112,0.0,2.0,88,0.00,,,0.00,Wunderground v.1.15,2013-01-03 05:56:00,